sensor_id;sensor_type;location;lat;lon;timestamp;temperature;humidity
9977;DHT22;5029;47.378;11.776;2022-11-25T00:01:27;-0.40;99.90
9977;DHT22;5029;47.378;11.776;2022-11-25T00:06:34;-0.30;99.90
9977;DHT22;5029;47.378;11.776;2022-11-25T00:11:41;-0.50;99.90
9977;DHT22;5029;47.378;11.776;2022-11-25T00:16:50;-0.30;99.90
9977;DHT22;5029;47.378;11.776;2022-11-25T00:22:00;-0.40;99.90
9977;DHT22;5029;47.378;11.776;2022-11-25T00:27:05;-0.40;99.90
9977;DHT22;5029;47.378;11.776;2022-11-25T00:32:13;-0.10;99.90
9977;DHT22;5029;47.378;11.776;2022-11-25T00:37:20;-0.40;99.90
9977;DHT22;5029;47.378;11.776;2022-11-25T00:42:26;-0.30;99.90
9977;DHT22;5029;47.378;11.776;2022-11-25T00:47:54;-0.20;99.90
9977;DHT22;5029;47.378;11.776;2022-11-25T00:52:59;-0.70;99.90
9977;DHT22;5029;47.378;11.776;2022-11-25T00:58:03;-0.70;99.90
9977;DHT22;5029;47.378;11.776;2022-11-25T01:03:10;-0.90;99.90
9977;DHT22;5029;47.378;11.776;2022-11-25T01:08:15;-0.90;99.90
9977;DHT22;5029;47.378;11.776;2022-11-25T01:13:19;-0.80;99.90
9977;DHT22;5029;47.378;11.776;2022-11-25T01:18:25;-0.90;99.90
9977;DHT22;5029;47.378;11.776;2022-11-25T01:23:37;-0.70;99.90
9977;DHT22;5029;47.378;11.776;2022-11-25T01:28:41;-0.70;99.90
9977;DHT22;5029;47.378;11.776;2022-11-25T01:33:46;-0.80;99.90
9977;DHT22;5029;47.378;11.776;2022-11-25T01:38:54;-0.70;99.90
9977;DHT22;5029;47.378;11.776;2022-11-25T01:44:04;-0.70;99.90
9977;DHT22;5029;47.378;11.776;2022-11-25T01:49:16;-0.70;99.90
9977;DHT22;5029;47.378;11.776;2022-11-25T01:54:27;-0.40;99.90
9977;DHT22;5029;47.378;11.776;2022-11-25T01:59:36;-0.60;97.60
9977;DHT22;5029;47.378;11.776;2022-11-25T02:04:41;-0.50;94.70
9977;DHT22;5029;47.378;11.776;2022-11-25T02:09:47;-0.50;87.40
9977;DHT22;5029;47.378;11.776;2022-11-25T02:14:53;-0.60;49.10
9977;DHT22;5029;47.378;11.776;2022-11-25T02:20:00;-0.60;49.50
9977;DHT22;5029;47.378;11.776;2022-11-25T02:25:13;-0.70;47.80
9977;DHT22;5029;47.378;11.776;2022-11-25T02:30:17;-0.70;48.50
9977;DHT22;5029;47.378;11.776;2022-11-25T02:35:29;-0.70;40.70
9977;DHT22;5029;47.378;11.776;2022-11-25T02:40:40;-0.80;58.40
9977;DHT22;5029;47.378;11.776;2022-11-25T02:45:57;-0.80;70.10
9977;DHT22;5029;47.378;11.776;2022-11-25T02:51:01;-0.80;93.30
9977;DHT22;5029;47.378;11.776;2022-11-25T02:56:07;-0.70;72.20
9977;DHT22;5029;47.378;11.776;2022-11-25T03:01:11;-0.40;32.10
9977;DHT22;5029;47.378;11.776;2022-11-25T03:06:15;-0.30;1.00
9977;DHT22;5029;47.378;11.776;2022-11-25T03:11:20;-0.40;1.00
9977;DHT22;5029;47.378;11.776;2022-11-25T03:16:44;-0.70;45.60
9977;DHT22;5029;47.378;11.776;2022-11-25T03:21:47;-0.80;92.10
9977;DHT22;5029;47.378;11.776;2022-11-25T03:26:52;-0.80;98.20
9977;DHT22;5029;47.378;11.776;2022-11-25T03:31:56;-0.80;99.90
9977;DHT22;5029;47.378;11.776;2022-11-25T03:37:00;-0.80;99.90
9977;DHT22;5029;47.378;11.776;2022-11-25T03:42:05;-0.90;99.90
9977;DHT22;5029;47.378;11.776;2022-11-25T03:47:08;-0.70;99.90
9977;DHT22;5029;47.378;11.776;2022-11-25T03:52:12;-0.80;99.90
9977;DHT22;5029;47.378;11.776;2022-11-25T03:57:17;-0.80;99.90
9977;DHT22;5029;47.378;11.776;2022-11-25T04:02:21;-0.70;99.90
9977;DHT22;5029;47.378;11.776;2022-11-25T04:07:24;-0.50;99.90
9977;DHT22;5029;47.378;11.776;2022-11-25T04:12:29;-0.50;99.90
9977;DHT22;5029;47.378;11.776;2022-11-25T04:17:53;-0.50;99.90
9977;DHT22;5029;47.378;11.776;2022-11-25T04:22:57;-0.40;99.90
9977;DHT22;5029;47.378;11.776;2022-11-25T04:28:02;-0.40;97.10
9977;DHT22;5029;47.378;11.776;2022-11-25T04:33:06;-0.70;82.60
9977;DHT22;5029;47.378;11.776;2022-11-25T04:38:10;-0.70;87.20
9977;DHT22;5029;47.378;11.776;2022-11-25T04:43:15;-0.70;90.20
9977;DHT22;5029;47.378;11.776;2022-11-25T04:48:19;-0.90;97.00
9977;DHT22;5029;47.378;11.776;2022-11-25T04:53:22;-0.60;99.90
9977;DHT22;5029;47.378;11.776;2022-11-25T04:58:27;-0.60;99.90
9977;DHT22;5029;47.378;11.776;2022-11-25T05:03:48;-0.50;99.90
9977;DHT22;5029;47.378;11.776;2022-11-25T05:08:58;-0.50;97.60
9977;DHT22;5029;47.378;11.776;2022-11-25T05:14:03;-0.50;90.30
9977;DHT22;5029;47.378;11.776;2022-11-25T05:19:06;-0.40;71.50
9977;DHT22;5029;47.378;11.776;2022-11-25T05:24:10;-0.50;46.80
9977;DHT22;5029;47.378;11.776;2022-11-25T05:29:15;-0.50;38.20
9977;DHT22;5029;47.378;11.776;2022-11-25T05:34:18;-0.50;37.30
9977;DHT22;5029;47.378;11.776;2022-11-25T05:39:22;-0.40;52.10
9977;DHT22;5029;47.378;11.776;2022-11-25T05:44:27;-0.70;44.30
9977;DHT22;5029;47.378;11.776;2022-11-25T05:49:31;-0.40;74.90
9977;DHT22;5029;47.378;11.776;2022-11-25T05:54:34;-0.60;57.20
9977;DHT22;5029;47.378;11.776;2022-11-25T05:59:40;-0.50;80.50
9977;DHT22;5029;47.378;11.776;2022-11-25T06:11:59;-0.70;40.40
9977;DHT22;5029;47.378;11.776;2022-11-25T06:17:21;-0.60;70.60
9977;DHT22;5029;47.378;11.776;2022-11-25T06:22:28;-0.60;56.10
9977;DHT22;5029;47.378;11.776;2022-11-25T06:27:32;-0.50;66.80
9977;DHT22;5029;47.378;11.776;2022-11-25T06:32:58;-0.50;45.70
9977;DHT22;5029;47.378;11.776;2022-11-25T06:38:01;-0.50;33.30
9977;DHT22;5029;47.378;11.776;2022-11-25T06:43:05;-0.60;23.80
9977;DHT22;5029;47.378;11.776;2022-11-25T06:48:10;-0.70;18.00
9977;DHT22;5029;47.378;11.776;2022-11-25T06:53:14;-0.80;36.60
9977;DHT22;5029;47.378;11.776;2022-11-25T06:58:24;-1.10;57.30
9977;DHT22;5029;47.378;11.776;2022-11-25T07:03:39;-1.00;96.40
9977;DHT22;5029;47.378;11.776;2022-11-25T07:08:43;-0.80;99.90
9977;DHT22;5029;47.378;11.776;2022-11-25T07:13:49;-0.90;84.40
9977;DHT22;5029;47.378;11.776;2022-11-25T07:24:52;-0.80;75.80
9977;DHT22;5029;47.378;11.776;2022-11-25T07:30:07;-0.60;24.10
9977;DHT22;5029;47.378;11.776;2022-11-25T07:35:43;-0.50;21.70
9977;DHT22;5029;47.378;11.776;2022-11-25T07:40:48;-0.50;30.20
9977;DHT22;5029;47.378;11.776;2022-11-25T07:45:52;-0.40;27.00
9977;DHT22;5029;47.378;11.776;2022-11-25T07:50:56;-0.20;30.00
9977;DHT22;5029;47.378;11.776;2022-11-25T07:56:05;-0.30;11.80
9977;DHT22;5029;47.378;11.776;2022-11-25T08:01:10;-0.40;17.40
9977;DHT22;5029;47.378;11.776;2022-11-25T08:06:19;-0.10;31.10
9977;DHT22;5029;47.378;11.776;2022-11-25T08:11:26;-0.20;4.60
9977;DHT22;5029;47.378;11.776;2022-11-25T08:16:33;-0.20;6.60
9977;DHT22;5029;47.378;11.776;2022-11-25T08:21:37;0.10;6.70
9977;DHT22;5029;47.378;11.776;2022-11-25T08:26:47;0.30;1.00
9977;DHT22;5029;47.378;11.776;2022-11-25T08:31:52;0.50;1.00
9977;DHT22;5029;47.378;11.776;2022-11-25T08:36:57;0.50;1.00
9977;DHT22;5029;47.378;11.776;2022-11-25T08:42:03;0.40;1.00
9977;DHT22;5029;47.378;11.776;2022-11-25T08:47:07;0.40;1.00
9977;DHT22;5029;47.378;11.776;2022-11-25T08:52:19;0.80;1.00
9977;DHT22;5029;47.378;11.776;2022-11-25T08:57:38;0.90;1.00
9977;DHT22;5029;47.378;11.776;2022-11-25T09:04:30;0.70;1.00
9977;DHT22;5029;47.378;11.776;2022-11-25T09:08:49;0.80;1.00
9977;DHT22;5029;47.378;11.776;2022-11-25T09:14:50;1.00;99.90
9977;DHT22;5029;47.378;11.776;2022-11-25T09:20:26;0.80;99.90
9977;DHT22;5029;47.378;11.776;2022-11-25T09:25:39;0.90;99.90
9977;DHT22;5029;47.378;11.776;2022-11-25T09:30:44;1.00;99.90
9977;DHT22;5029;47.378;11.776;2022-11-25T09:35:48;1.20;99.90
9977;DHT22;5029;47.378;11.776;2022-11-25T09:40:58;1.20;99.90
9977;DHT22;5029;47.378;11.776;2022-11-25T09:46:12;1.30;99.90
9977;DHT22;5029;47.378;11.776;2022-11-25T09:51:46;1.10;99.90
9977;DHT22;5029;47.378;11.776;2022-11-25T09:57:03;0.80;1.00
9977;DHT22;5029;47.378;11.776;2022-11-25T10:02:19;0.70;1.00
9977;DHT22;5029;47.378;11.776;2022-11-25T10:07:28;0.80;1.00
9977;DHT22;5029;47.378;11.776;2022-11-25T10:12:37;0.60;1.00
9977;DHT22;5029;47.378;11.776;2022-11-25T10:17:47;0.40;1.00
9977;DHT22;5029;47.378;11.776;2022-11-25T10:22:55;0.40;1.00
9977;DHT22;5029;47.378;11.776;2022-11-25T10:28:16;0.60;99.90
9977;DHT22;5029;47.378;11.776;2022-11-25T10:33:31;0.50;99.90
9977;DHT22;5029;47.378;11.776;2022-11-25T10:38:41;0.60;1.00
9977;DHT22;5029;47.378;11.776;2022-11-25T10:43:48;0.30;1.00
9977;DHT22;5029;47.378;11.776;2022-11-25T10:48:59;0.50;2.10
9977;DHT22;5029;47.378;11.776;2022-11-25T10:54:15;0.50;1.00
9977;DHT22;5029;47.378;11.776;2022-11-25T10:59:30;0.50;99.90
9977;DHT22;5029;47.378;11.776;2022-11-25T11:04:52;0.50;99.90
9977;DHT22;5029;47.378;11.776;2022-11-25T11:10:17;0.50;99.90
9977;DHT22;5029;47.378;11.776;2022-11-25T11:15:22;0.60;99.90
9977;DHT22;5029;47.378;11.776;2022-11-25T11:20:28;0.90;99.90
9977;DHT22;5029;47.378;11.776;2022-11-25T11:25:33;1.70;99.90
9977;DHT22;5029;47.378;11.776;2022-11-25T11:30:52;2.10;99.90
9977;DHT22;5029;47.378;11.776;2022-11-25T11:36:09;2.20;99.90
9977;DHT22;5029;47.378;11.776;2022-11-25T11:41:29;2.40;99.90
9977;DHT22;5029;47.378;11.776;2022-11-25T11:46:46;2.20;99.90
9977;DHT22;5029;47.378;11.776;2022-11-25T11:52:01;2.40;99.90
9977;DHT22;5029;47.378;11.776;2022-11-25T11:57:17;2.40;99.90
9977;DHT22;5029;47.378;11.776;2022-11-25T12:02:36;2.60;99.90
9977;DHT22;5029;47.378;11.776;2022-11-25T12:07:53;2.50;99.90
9977;DHT22;5029;47.378;11.776;2022-11-25T12:13:07;2.00;99.90
9977;DHT22;5029;47.378;11.776;2022-11-25T12:18:25;1.80;99.90
9977;DHT22;5029;47.378;11.776;2022-11-25T12:23:41;1.60;99.90
9977;DHT22;5029;47.378;11.776;2022-11-25T12:28:52;1.50;99.90
9977;DHT22;5029;47.378;11.776;2022-11-25T12:34:03;1.50;99.90
9977;DHT22;5029;47.378;11.776;2022-11-25T12:39:19;1.40;99.90
9977;DHT22;5029;47.378;11.776;2022-11-25T12:44:28;1.30;99.90
9977;DHT22;5029;47.378;11.776;2022-11-25T12:49:41;1.30;99.90
9977;DHT22;5029;47.378;11.776;2022-11-25T12:55:09;1.30;99.90
9977;DHT22;5029;47.378;11.776;2022-11-25T13:00:20;1.20;99.90
9977;DHT22;5029;47.378;11.776;2022-11-25T13:06:05;1.20;99.90
9977;DHT22;5029;47.378;11.776;2022-11-25T13:11:37;1.20;99.90
9977;DHT22;5029;47.378;11.776;2022-11-25T13:16:48;1.20;99.90
9977;DHT22;5029;47.378;11.776;2022-11-25T13:21:58;1.50;99.90
9977;DHT22;5029;47.378;11.776;2022-11-25T13:27:04;1.40;99.90
9977;DHT22;5029;47.378;11.776;2022-11-25T13:32:24;1.30;99.90
9977;DHT22;5029;47.378;11.776;2022-11-25T13:37:35;1.90;99.90
9977;DHT22;5029;47.378;11.776;2022-11-25T13:42:44;2.00;99.90
9977;DHT22;5029;47.378;11.776;2022-11-25T13:47:48;2.00;99.90
9977;DHT22;5029;47.378;11.776;2022-11-25T13:53:03;2.20;99.90
9977;DHT22;5029;47.378;11.776;2022-11-25T13:58:19;2.60;99.90
9977;DHT22;5029;47.378;11.776;2022-11-25T14:03:43;2.50;99.90
9977;DHT22;5029;47.378;11.776;2022-11-25T14:08:54;2.30;99.90
9977;DHT22;5029;47.378;11.776;2022-11-25T14:14:16;2.10;99.90
9977;DHT22;5029;47.378;11.776;2022-11-25T14:19:44;2.10;99.90
9977;DHT22;5029;47.378;11.776;2022-11-25T14:25:10;2.20;99.90
9977;DHT22;5029;47.378;11.776;2022-11-25T14:30:20;2.20;99.90
9977;DHT22;5029;47.378;11.776;2022-11-25T14:35:36;2.30;99.90
9977;DHT22;5029;47.378;11.776;2022-11-25T14:40:53;2.60;99.90
9977;DHT22;5029;47.378;11.776;2022-11-25T14:46:14;2.70;99.90
9977;DHT22;5029;47.378;11.776;2022-11-25T14:51:24;2.70;99.90
9977;DHT22;5029;47.378;11.776;2022-11-25T15:02:26;2.50;99.90
9977;DHT22;5029;47.378;11.776;2022-11-25T15:07:41;2.60;99.90
9977;DHT22;5029;47.378;11.776;2022-11-25T15:12:51;2.10;99.90
9977;DHT22;5029;47.378;11.776;2022-11-25T15:17:57;2.40;99.90
9977;DHT22;5029;47.378;11.776;2022-11-25T15:23:03;2.60;99.90
9977;DHT22;5029;47.378;11.776;2022-11-25T15:28:14;2.70;99.90
9977;DHT22;5029;47.378;11.776;2022-11-25T15:33:24;2.30;99.90
9977;DHT22;5029;47.378;11.776;2022-11-25T15:38:48;2.60;99.90
9977;DHT22;5029;47.378;11.776;2022-11-25T15:43:57;2.40;99.90
9977;DHT22;5029;47.378;11.776;2022-11-25T15:49:05;2.40;99.90
9977;DHT22;5029;47.378;11.776;2022-11-25T15:54:16;2.40;99.90
9977;DHT22;5029;47.378;11.776;2022-11-25T15:59:44;2.10;99.90
9977;DHT22;5029;47.378;11.776;2022-11-25T16:04:50;1.70;99.90
9977;DHT22;5029;47.378;11.776;2022-11-25T16:09:53;1.60;99.90
9977;DHT22;5029;47.378;11.776;2022-11-25T16:14:59;1.40;99.90
9977;DHT22;5029;47.378;11.776;2022-11-25T16:20:18;1.30;99.90
9977;DHT22;5029;47.378;11.776;2022-11-25T16:25:22;1.20;99.90
9977;DHT22;5029;47.378;11.776;2022-11-25T16:30:26;1.10;99.90
9977;DHT22;5029;47.378;11.776;2022-11-25T16:35:37;1.00;99.90
9977;DHT22;5029;47.378;11.776;2022-11-25T16:40:42;0.80;99.90
9977;DHT22;5029;47.378;11.776;2022-11-25T16:45:49;0.70;99.90
9977;DHT22;5029;47.378;11.776;2022-11-25T16:50:56;0.80;99.90
9977;DHT22;5029;47.378;11.776;2022-11-25T16:56:11;0.80;99.90
9977;DHT22;5029;47.378;11.776;2022-11-25T17:01:19;0.70;99.90
9977;DHT22;5029;47.378;11.776;2022-11-25T17:06:31;0.90;99.90
9977;DHT22;5029;47.378;11.776;2022-11-25T17:11:38;1.00;99.90
9977;DHT22;5029;47.378;11.776;2022-11-25T17:16:48;1.00;99.90
9977;DHT22;5029;47.378;11.776;2022-11-25T17:21:56;1.10;99.90
9977;DHT22;5029;47.378;11.776;2022-11-25T17:27:03;1.10;99.90
9977;DHT22;5029;47.378;11.776;2022-11-25T17:32:10;1.10;99.90
9977;DHT22;5029;47.378;11.776;2022-11-25T17:37:20;1.10;99.90
9977;DHT22;5029;47.378;11.776;2022-11-25T17:42:27;1.20;99.90
9977;DHT22;5029;47.378;11.776;2022-11-25T17:47:34;1.20;99.90
9977;DHT22;5029;47.378;11.776;2022-11-25T17:52:44;1.20;99.90
9977;DHT22;5029;47.378;11.776;2022-11-25T17:57:49;1.30;99.90
9977;DHT22;5029;47.378;11.776;2022-11-25T18:02:54;1.20;99.90
9977;DHT22;5029;47.378;11.776;2022-11-25T18:07:59;1.30;99.90
9977;DHT22;5029;47.378;11.776;2022-11-25T18:13:04;1.30;99.90
9977;DHT22;5029;47.378;11.776;2022-11-25T18:18:17;1.30;99.90
9977;DHT22;5029;47.378;11.776;2022-11-25T18:23:25;1.30;99.90
9977;DHT22;5029;47.378;11.776;2022-11-25T18:28:30;1.30;99.90
9977;DHT22;5029;47.378;11.776;2022-11-25T18:33:36;1.30;99.90
9977;DHT22;5029;47.378;11.776;2022-11-25T18:38:42;1.20;99.90
9977;DHT22;5029;47.378;11.776;2022-11-25T18:43:47;1.30;99.90
9977;DHT22;5029;47.378;11.776;2022-11-25T18:48:52;1.30;99.90
9977;DHT22;5029;47.378;11.776;2022-11-25T18:54:01;1.30;99.90
9977;DHT22;5029;47.378;11.776;2022-11-25T18:59:11;1.30;99.90
9977;DHT22;5029;47.378;11.776;2022-11-25T19:04:17;1.30;99.90
9977;DHT22;5029;47.378;11.776;2022-11-25T19:09:23;1.20;99.90
9977;DHT22;5029;47.378;11.776;2022-11-25T19:14:30;1.30;99.90
9977;DHT22;5029;47.378;11.776;2022-11-25T19:19:36;1.30;99.90
9977;DHT22;5029;47.378;11.776;2022-11-25T19:24:46;1.30;99.90
9977;DHT22;5029;47.378;11.776;2022-11-25T19:29:51;1.30;99.90
9977;DHT22;5029;47.378;11.776;2022-11-25T19:34:58;1.30;99.90
9977;DHT22;5029;47.378;11.776;2022-11-25T19:40:13;1.30;99.90
9977;DHT22;5029;47.378;11.776;2022-11-25T19:45:19;1.30;99.90
9977;DHT22;5029;47.378;11.776;2022-11-25T19:50:26;1.20;99.90
9977;DHT22;5029;47.378;11.776;2022-11-25T19:55:33;1.20;99.90
9977;DHT22;5029;47.378;11.776;2022-11-25T20:00:39;1.20;99.90
9977;DHT22;5029;47.378;11.776;2022-11-25T20:05:44;1.20;99.90
9977;DHT22;5029;47.378;11.776;2022-11-25T20:10:53;1.20;99.90
9977;DHT22;5029;47.378;11.776;2022-11-25T20:15:58;1.20;99.90
9977;DHT22;5029;47.378;11.776;2022-11-25T20:21:05;1.30;99.90
9977;DHT22;5029;47.378;11.776;2022-11-25T20:26:15;1.20;99.90
9977;DHT22;5029;47.378;11.776;2022-11-25T20:31:24;1.30;99.90
9977;DHT22;5029;47.378;11.776;2022-11-25T20:36:34;1.30;99.90
9977;DHT22;5029;47.378;11.776;2022-11-25T20:41:50;1.40;99.90
9977;DHT22;5029;47.378;11.776;2022-11-25T20:46:58;1.40;99.90
9977;DHT22;5029;47.378;11.776;2022-11-25T20:52:18;1.40;99.90
9977;DHT22;5029;47.378;11.776;2022-11-25T20:57:27;1.40;99.90
9977;DHT22;5029;47.378;11.776;2022-11-25T21:02:32;1.40;99.90
9977;DHT22;5029;47.378;11.776;2022-11-25T21:07:38;1.40;99.90
9977;DHT22;5029;47.378;11.776;2022-11-25T21:12:45;1.10;99.90
9977;DHT22;5029;47.378;11.776;2022-11-25T21:17:53;1.30;99.90
9977;DHT22;5029;47.378;11.776;2022-11-25T21:22:59;1.30;99.90
9977;DHT22;5029;47.378;11.776;2022-11-25T21:28:19;1.30;99.90
9977;DHT22;5029;47.378;11.776;2022-11-25T21:33:27;1.30;99.90
9977;DHT22;5029;47.378;11.776;2022-11-25T21:38:32;1.20;99.90
9977;DHT22;5029;47.378;11.776;2022-11-25T21:43:40;1.20;99.90
9977;DHT22;5029;47.378;11.776;2022-11-25T21:48:47;1.30;99.90
9977;DHT22;5029;47.378;11.776;2022-11-25T21:53:57;1.30;99.90
9977;DHT22;5029;47.378;11.776;2022-11-25T21:59:06;1.20;99.90
9977;DHT22;5029;47.378;11.776;2022-11-25T22:04:15;1.20;99.90
9977;DHT22;5029;47.378;11.776;2022-11-25T22:09:23;1.10;99.90
9977;DHT22;5029;47.378;11.776;2022-11-25T22:14:36;1.20;99.90
9977;DHT22;5029;47.378;11.776;2022-11-25T22:19:41;1.30;99.90
9977;DHT22;5029;47.378;11.776;2022-11-25T22:24:45;1.20;99.90
9977;DHT22;5029;47.378;11.776;2022-11-25T22:29:51;1.20;99.90
9977;DHT22;5029;47.378;11.776;2022-11-25T22:34:54;1.20;99.90
9977;DHT22;5029;47.378;11.776;2022-11-25T22:40:01;1.20;99.90
9977;DHT22;5029;47.378;11.776;2022-11-25T22:45:14;1.20;99.90
9977;DHT22;5029;47.378;11.776;2022-11-25T22:50:22;1.30;99.90
9977;DHT22;5029;47.378;11.776;2022-11-25T22:55:28;1.40;99.90
9977;DHT22;5029;47.378;11.776;2022-11-25T23:00:35;1.50;99.90
9977;DHT22;5029;47.378;11.776;2022-11-25T23:05:39;1.50;99.90
9977;DHT22;5029;47.378;11.776;2022-11-25T23:10:47;1.50;99.90
9977;DHT22;5029;47.378;11.776;2022-11-25T23:15:54;1.40;99.90
9977;DHT22;5029;47.378;11.776;2022-11-25T23:20:58;1.40;99.90
9977;DHT22;5029;47.378;11.776;2022-11-25T23:26:08;1.30;99.90
9977;DHT22;5029;47.378;11.776;2022-11-25T23:37:18;1.30;99.90
9977;DHT22;5029;47.378;11.776;2022-11-25T23:42:21;1.30;99.90
9977;DHT22;5029;47.378;11.776;2022-11-25T23:47:25;1.20;99.90
9977;DHT22;5029;47.378;11.776;2022-11-25T23:52:30;1.20;99.90
9977;DHT22;5029;47.378;11.776;2022-11-25T23:57:36;1.20;99.90
